sensor_id;sensor_type;location;lat;lon;timestamp;pressure;altitude;pressure_sealevel;temperature;humidity
12475;BME280;6302;42.624;23.334;2023-05-07T00:02:18;93519.13;;;11.85;100.00
12475;BME280;6302;42.624;23.334;2023-05-07T00:04:44;93516.47;;;11.81;100.00
12475;BME280;6302;42.624;23.334;2023-05-07T00:07:11;93519.91;;;11.78;100.00
12475;BME280;6302;42.624;23.334;2023-05-07T00:09:38;93527.53;;;11.76;100.00
12475;BME280;6302;42.624;23.334;2023-05-07T00:12:05;93519.19;;;11.74;100.00
12475;BME280;6302;42.624;23.334;2023-05-07T00:14:32;93523.41;;;11.68;100.00
12475;BME280;6302;42.624;23.334;2023-05-07T00:16:59;93533.28;;;11.64;100.00
12475;BME280;6302;42.624;23.334;2023-05-07T00:19:27;93532.19;;;11.61;100.00
12475;BME280;6302;42.624;23.334;2023-05-07T00:21:54;93532.59;;;11.56;100.00
12475;BME280;6302;42.624;23.334;2023-05-07T00:24:21;93518.63;;;11.49;100.00
12475;BME280;6302;42.624;23.334;2023-05-07T00:26:48;93519.78;;;11.48;100.00
12475;BME280;6302;42.624;23.334;2023-05-07T00:29:14;93515.63;;;11.47;100.00
12475;BME280;6302;42.624;23.334;2023-05-07T00:31:41;93514.13;;;11.42;100.00
12475;BME280;6302;42.624;23.334;2023-05-07T00:34:08;93510.38;;;11.36;100.00
12475;BME280;6302;42.624;23.334;2023-05-07T00:36:36;93514.19;;;11.32;100.00
12475;BME280;6302;42.624;23.334;2023-05-07T00:39:03;93509.66;;;11.29;100.00
12475;BME280;6302;42.624;23.334;2023-05-07T00:41:30;93504.78;;;11.24;100.00
12475;BME280;6302;42.624;23.334;2023-05-07T00:43:57;93515.81;;;11.19;100.00
12475;BME280;6302;42.624;23.334;2023-05-07T00:46:24;93510.56;;;11.11;100.00
12475;BME280;6302;42.624;23.334;2023-05-07T00:48:51;93516.63;;;11.08;100.00
12475;BME280;6302;42.624;23.334;2023-05-07T00:51:18;93524.25;;;11.03;100.00
12475;BME280;6302;42.624;23.334;2023-05-07T00:53:47;93519.72;;;10.96;100.00
12475;BME280;6302;42.624;23.334;2023-05-07T00:56:14;93518.28;;;10.88;100.00
12475;BME280;6302;42.624;23.334;2023-05-07T00:58:41;93513.00;;;10.85;100.00
12475;BME280;6302;42.624;23.334;2023-05-07T01:01:08;93520.53;;;10.86;100.00
12475;BME280;6302;42.624;23.334;2023-05-07T01:03:35;93519.81;;;10.82;100.00
12475;BME280;6302;42.624;23.334;2023-05-07T01:06:02;93527.06;;;10.78;100.00
12475;BME280;6302;42.624;23.334;2023-05-07T01:08:30;93519.88;;;10.75;100.00
12475;BME280;6302;42.624;23.334;2023-05-07T01:10:59;93522.50;;;10.75;100.00
12475;BME280;6302;42.624;23.334;2023-05-07T01:13:27;93524.75;;;10.80;100.00
12475;BME280;6302;42.624;23.334;2023-05-07T01:15:54;93522.50;;;10.75;100.00
12475;BME280;6302;42.624;23.334;2023-05-07T01:18:21;93522.16;;;10.73;100.00
12475;BME280;6302;42.624;23.334;2023-05-07T01:20:48;93517.97;;;10.72;100.00
12475;BME280;6302;42.624;23.334;2023-05-07T01:23:17;93516.09;;;10.69;100.00
12475;BME280;6302;42.624;23.334;2023-05-07T01:25:51;93518.75;;;10.69;100.00
12475;BME280;6302;42.624;23.334;2023-05-07T01:28:18;93523.00;;;10.56;100.00
12475;BME280;6302;42.624;23.334;2023-05-07T01:30:46;93512.03;;;10.54;100.00
12475;BME280;6302;42.624;23.334;2023-05-07T01:33:15;93512.03;;;10.54;100.00
12475;BME280;6302;42.624;23.334;2023-05-07T01:35:48;93515.44;;;10.51;100.00
12475;BME280;6302;42.624;23.334;2023-05-07T01:38:18;93500.31;;;10.48;100.00
12475;BME280;6302;42.624;23.334;2023-05-07T01:40:45;93505.97;;;10.50;100.00
12475;BME280;6302;42.624;23.334;2023-05-07T01:43:12;93496.53;;;10.49;100.00
12475;BME280;6302;42.624;23.334;2023-05-07T01:45:40;93488.94;;;10.51;100.00
12475;BME280;6302;42.624;23.334;2023-05-07T01:48:07;93495.69;;;10.59;100.00
12475;BME280;6302;42.624;23.334;2023-05-07T01:50:35;93486.97;;;10.62;100.00
12475;BME280;6302;42.624;23.334;2023-05-07T01:53:03;93482.44;;;10.66;100.00
12475;BME280;6302;42.624;23.334;2023-05-07T01:55:31;93475.97;;;10.67;100.00
12475;BME280;6302;42.624;23.334;2023-05-07T01:57:58;93473.72;;;10.66;100.00
12475;BME280;6302;42.624;23.334;2023-05-07T02:00:25;93477.53;;;10.61;100.00
12475;BME280;6302;42.624;23.334;2023-05-07T02:02:52;93469.22;;;10.56;100.00
12475;BME280;6302;42.624;23.334;2023-05-07T02:05:19;93468.88;;;10.50;100.00
12475;BME280;6302;42.624;23.334;2023-05-07T02:07:46;93465.91;;;10.41;100.00
12475;BME280;6302;42.624;23.334;2023-05-07T02:10:13;93469.31;;;10.41;100.00
12475;BME280;6302;42.624;23.334;2023-05-07T02:12:41;93457.59;;;10.35;100.00
12475;BME280;6302;42.624;23.334;2023-05-07T02:15:08;93447.44;;;10.27;100.00
12475;BME280;6302;42.624;23.334;2023-05-07T02:17:39;93450.03;;;10.34;100.00
12475;BME280;6302;42.624;23.334;2023-05-07T02:20:24;93448.19;;;10.24;100.00
12475;BME280;6302;42.624;23.334;2023-05-07T02:22:51;93444.38;;;10.25;100.00
12475;BME280;6302;42.624;23.334;2023-05-07T02:25:17;93449.69;;;10.25;100.00
12475;BME280;6302;42.624;23.334;2023-05-07T02:27:46;93456.50;;;10.26;100.00
12475;BME280;6302;42.624;23.334;2023-05-07T02:30:13;93459.50;;;10.28;100.00
12475;BME280;6302;42.624;23.334;2023-05-07T02:32:40;93464.06;;;10.31;100.00
12475;BME280;6302;42.624;23.334;2023-05-07T02:35:07;93461.75;;;10.33;100.00
12475;BME280;6302;42.624;23.334;2023-05-07T02:37:34;93463.72;;;10.18;100.00
12475;BME280;6302;42.624;23.334;2023-05-07T02:40:01;93464.50;;;10.12;100.00
12475;BME280;6302;42.624;23.334;2023-05-07T02:42:29;93471.66;;;10.08;100.00
12475;BME280;6302;42.624;23.334;2023-05-07T02:44:58;93465.28;;;10.02;100.00
12475;BME280;6302;42.624;23.334;2023-05-07T02:47:25;93465.63;;;10.00;100.00
12475;BME280;6302;42.624;23.334;2023-05-07T02:49:54;93466.44;;;9.97;100.00
12475;BME280;6302;42.624;23.334;2023-05-07T02:52:20;93464.50;;;9.98;100.00
12475;BME280;6302;42.624;23.334;2023-05-07T02:54:47;93472.47;;;9.94;100.00
12475;BME280;6302;42.624;23.334;2023-05-07T02:57:14;93482.66;;;9.96;100.00
12475;BME280;6302;42.624;23.334;2023-05-07T02:59:41;93483.81;;;9.95;100.00
12475;BME280;6302;42.624;23.334;2023-05-07T03:02:09;93478.53;;;9.95;100.00
12475;BME280;6302;42.624;23.334;2023-05-07T03:04:36;93481.94;;;9.92;100.00
12475;BME280;6302;42.624;23.334;2023-05-07T03:07:03;93478.53;;;9.91;100.00
12475;BME280;6302;42.624;23.334;2023-05-07T03:09:30;93480.78;;;9.93;100.00
12475;BME280;6302;42.624;23.334;2023-05-07T03:11:57;93486.06;;;9.96;100.00
12475;BME280;6302;42.624;23.334;2023-05-07T03:14:24;93492.13;;;9.97;100.00
12475;BME280;6302;42.624;23.334;2023-05-07T03:16:50;93487.59;;;9.97;100.00
12475;BME280;6302;42.624;23.334;2023-05-07T03:19:19;93494.38;;;9.98;100.00
12475;BME280;6302;42.624;23.334;2023-05-07T03:21:45;93495.91;;;9.99;100.00
12475;BME280;6302;42.624;23.334;2023-05-07T03:24:12;93501.56;;;9.98;100.00
12475;BME280;6302;42.624;23.334;2023-05-07T03:26:39;93500.81;;;10.01;100.00
12475;BME280;6302;42.624;23.334;2023-05-07T03:29:06;93507.25;;;10.07;100.00
12475;BME280;6302;42.624;23.334;2023-05-07T03:31:32;93498.50;;;10.10;100.00
12475;BME280;6302;42.624;23.334;2023-05-07T03:34:00;93501.19;;;10.17;100.00
12475;BME280;6302;42.624;23.334;2023-05-07T03:36:28;93500.78;;;10.22;100.00
12475;BME280;6302;42.624;23.334;2023-05-07T03:38:55;93506.06;;;10.29;100.00
12475;BME280;6302;42.624;23.334;2023-05-07T03:41:21;93504.50;;;10.35;100.00
12475;BME280;6302;42.624;23.334;2023-05-07T03:43:48;93514.34;;;10.41;100.00
12475;BME280;6302;42.624;23.334;2023-05-07T03:46:15;93512.44;;;10.49;100.00
12475;BME280;6302;42.624;23.334;2023-05-07T03:48:42;93516.16;;;10.55;100.00
12475;BME280;6302;42.624;23.334;2023-05-07T03:51:09;93513.13;;;10.60;100.00
12475;BME280;6302;42.624;23.334;2023-05-07T03:53:37;93516.88;;;10.66;100.00
12475;BME280;6302;42.624;23.334;2023-05-07T03:56:04;93522.50;;;10.75;100.00
12475;BME280;6302;42.624;23.334;2023-05-07T03:58:30;93517.56;;;10.81;100.00
12475;BME280;6302;42.624;23.334;2023-05-07T04:00:57;93522.81;;;10.88;100.00
12475;BME280;6302;42.624;23.334;2023-05-07T04:03:24;93536.44;;;10.93;100.00
12475;BME280;6302;42.624;23.334;2023-05-07T04:05:51;93528.75;;;11.06;100.00
12475;BME280;6302;42.624;23.334;2023-05-07T04:08:18;93538.25;;;11.07;100.00
12475;BME280;6302;42.624;23.334;2023-05-07T04:10:46;93543.13;;;11.16;100.00
12475;BME280;6302;42.624;23.334;2023-05-07T04:13:12;93537.41;;;11.21;100.00
12475;BME280;6302;42.624;23.334;2023-05-07T04:15:39;93536.97;;;11.29;100.00
12475;BME280;6302;42.624;23.334;2023-05-07T04:18:06;93553.56;;;11.40;100.00
12475;BME280;6302;42.624;23.334;2023-05-07T04:20:34;93553.16;;;11.45;100.00
12475;BME280;6302;42.624;23.334;2023-05-07T04:23:01;93558.41;;;11.52;100.00
12475;BME280;6302;42.624;23.334;2023-05-07T04:25:28;93555.72;;;11.56;100.00
12475;BME280;6302;42.624;23.334;2023-05-07T04:27:57;93564.75;;;11.69;100.00
12475;BME280;6302;42.624;23.334;2023-05-07T04:30:24;93565.47;;;11.77;100.00
12475;BME280;6302;42.624;23.334;2023-05-07T04:32:51;93573.09;;;11.67;100.00
12475;BME280;6302;42.624;23.334;2023-05-07T04:35:18;93569.31;;;11.68;100.00
12475;BME280;6302;42.624;23.334;2023-05-07T04:37:45;93570.00;;;11.80;100.00
12475;BME280;6302;42.624;23.334;2023-05-07T04:40:11;93573.69;;;11.89;100.00
12475;BME280;6302;42.624;23.334;2023-05-07T04:42:38;93581.25;;;11.94;100.00
12475;BME280;6302;42.624;23.334;2023-05-07T04:45:07;93575.09;;;12.01;100.00
12475;BME280;6302;42.624;23.334;2023-05-07T04:47:35;93574.28;;;12.07;100.00
12475;BME280;6302;42.624;23.334;2023-05-07T04:50:03;93576.56;;;12.05;100.00
12475;BME280;6302;42.624;23.334;2023-05-07T04:52:29;93577.34;;;12.06;100.00
12475;BME280;6302;42.624;23.334;2023-05-07T04:54:58;93578.19;;;11.96;100.00
12475;BME280;6302;42.624;23.334;2023-05-07T04:57:25;93583.06;;;12.04;100.00
12475;BME280;6302;42.624;23.334;2023-05-07T04:59:52;93583.91;;;11.94;100.00
12475;BME280;6302;42.624;23.334;2023-05-07T05:02:20;93575.94;;;11.91;100.00
12475;BME280;6302;42.624;23.334;2023-05-07T05:04:48;93582.72;;;11.95;100.00
12475;BME280;6302;42.624;23.334;2023-05-07T05:07:14;93580.41;;;12.04;100.00
12475;BME280;6302;42.624;23.334;2023-05-07T05:09:41;93575.31;;;12.20;100.00
12475;BME280;6302;42.624;23.334;2023-05-07T05:12:08;93570.94;;;12.40;100.00
12475;BME280;6302;42.624;23.334;2023-05-07T05:14:35;93568.41;;;12.64;100.00
12475;BME280;6302;42.624;23.334;2023-05-07T05:17:01;93564.34;;;12.86;100.00
12475;BME280;6302;42.624;23.334;2023-05-07T05:19:29;93570.16;;;13.04;100.00
12475;BME280;6302;42.624;23.334;2023-05-07T05:21:56;93571.50;;;13.23;100.00
12475;BME280;6302;42.624;23.334;2023-05-07T05:24:23;93577.41;;;13.34;100.00
12475;BME280;6302;42.624;23.334;2023-05-07T05:26:50;93581.19;;;13.36;100.00
12475;BME280;6302;42.624;23.334;2023-05-07T05:29:19;93581.06;;;13.43;100.00
12475;BME280;6302;42.624;23.334;2023-05-07T05:31:46;93582.34;;;13.62;100.00
12475;BME280;6302;42.624;23.334;2023-05-07T05:34:13;93583.56;;;13.57;100.00
12475;BME280;6302;42.624;23.334;2023-05-07T05:36:41;93583.56;;;13.57;100.00
12475;BME280;6302;42.624;23.334;2023-05-07T05:39:08;93587.69;;;13.58;100.00
12475;BME280;6302;42.624;23.334;2023-05-07T05:41:35;93587.56;;;13.69;100.00
12475;BME280;6302;42.624;23.334;2023-05-07T05:44:02;93595.88;;;13.71;100.00
12475;BME280;6302;42.624;23.334;2023-05-07T05:46:29;93598.25;;;13.65;100.00
12475;BME280;6302;42.624;23.334;2023-05-07T05:48:56;93593.34;;;13.64;100.00
12475;BME280;6302;42.624;23.334;2023-05-07T05:51:22;93584.47;;;13.70;100.00
12475;BME280;6302;42.624;23.334;2023-05-07T05:53:51;93588.44;;;13.86;100.00
12475;BME280;6302;42.624;23.334;2023-05-07T05:56:17;93585.66;;;13.93;100.00
12475;BME280;6302;42.624;23.334;2023-05-07T05:58:45;93587.72;;;14.05;100.00
12475;BME280;6302;42.624;23.334;2023-05-07T06:01:12;93589.94;;;14.10;100.00
12475;BME280;6302;42.624;23.334;2023-05-07T06:03:39;93593.00;;;14.08;100.00
12475;BME280;6302;42.624;23.334;2023-05-07T06:06:06;93592.78;;;14.22;100.00
12475;BME280;6302;42.624;23.334;2023-05-07T06:08:33;93604.88;;;14.27;100.00
12475;BME280;6302;42.624;23.334;2023-05-07T06:11:01;93593.72;;;14.36;100.00
12475;BME280;6302;42.624;23.334;2023-05-07T06:13:28;93593.72;;;14.36;100.00
12475;BME280;6302;42.624;23.334;2023-05-07T06:15:55;93593.38;;;14.33;100.00
12475;BME280;6302;42.624;23.334;2023-05-07T06:18:22;93605.81;;;14.40;100.00
12475;BME280;6302;42.624;23.334;2023-05-07T06:20:49;93593.81;;;14.52;100.00
12475;BME280;6302;42.624;23.334;2023-05-07T06:23:15;93588.47;;;14.52;100.00
12475;BME280;6302;42.624;23.334;2023-05-07T06:25:45;93596.63;;;14.64;100.00
12475;BME280;6302;42.624;23.334;2023-05-07T06:28:13;93595.00;;;14.70;100.00
12475;BME280;6302;42.624;23.334;2023-05-07T06:30:40;93593.91;;;14.87;100.00
12475;BME280;6302;42.624;23.334;2023-05-07T06:33:07;93586.38;;;14.82;100.00
12475;BME280;6302;42.624;23.334;2023-05-07T06:35:34;93588.84;;;14.93;100.00
12475;BME280;6302;42.624;23.334;2023-05-07T06:38:01;93580.59;;;15.04;100.00
12475;BME280;6302;42.624;23.334;2023-05-07T06:40:27;93585.81;;;15.11;100.00
12475;BME280;6302;42.624;23.334;2023-05-07T06:42:54;93578.97;;;15.10;100.00
12475;BME280;6302;42.624;23.334;2023-05-07T06:45:22;93578.47;;;15.15;100.00
12475;BME280;6302;42.624;23.334;2023-05-07T06:47:50;93581.00;;;15.22;100.00
12475;BME280;6302;42.624;23.334;2023-05-07T06:50:17;93575.00;;;15.18;100.00
12475;BME280;6302;42.624;23.334;2023-05-07T06:52:44;93575.94;;;15.43;100.00
12475;BME280;6302;42.624;23.334;2023-05-07T06:55:10;93575.09;;;15.50;100.00
12475;BME280;6302;42.624;23.334;2023-05-07T06:57:38;93574.94;;;15.57;100.00
12475;BME280;6302;42.624;23.334;2023-05-07T07:00:06;93573.25;;;15.63;100.00
12475;BME280;6302;42.624;23.334;2023-05-07T07:02:36;93575.44;;;15.68;100.00
12475;BME280;6302;42.624;23.334;2023-05-07T07:05:03;93575.78;;;15.70;100.00
12475;BME280;6302;42.624;23.334;2023-05-07T07:07:30;93574.75;;;15.80;100.00
12475;BME280;6302;42.624;23.334;2023-05-07T07:09:57;93581.13;;;15.86;100.00
12475;BME280;6302;42.624;23.334;2023-05-07T07:12:24;93578.72;;;15.92;100.00
12475;BME280;6302;42.624;23.334;2023-05-07T07:14:51;93586.72;;;16.08;100.00
12475;BME280;6302;42.624;23.334;2023-05-07T07:17:18;93575.75;;;16.18;100.00
12475;BME280;6302;42.624;23.334;2023-05-07T07:19:46;93577.09;;;16.26;100.00
12475;BME280;6302;42.624;23.334;2023-05-07T07:22:13;93568.97;;;16.30;100.00
12475;BME280;6302;42.624;23.334;2023-05-07T07:24:39;93573.31;;;16.40;100.00
12475;BME280;6302;42.624;23.334;2023-05-07T07:27:06;93571.81;;;16.39;100.00
12475;BME280;6302;42.624;23.334;2023-05-07T07:29:33;93571.19;;;16.48;100.00
12475;BME280;6302;42.624;23.334;2023-05-07T07:32:00;93570.84;;;16.62;100.00
12475;BME280;6302;42.624;23.334;2023-05-07T07:34:27;93570.69;;;16.81;100.00
12475;BME280;6302;42.624;23.334;2023-05-07T07:36:55;93576.09;;;16.94;99.79
12475;BME280;6302;42.624;23.334;2023-05-07T07:39:21;93576.66;;;17.02;96.64
12475;BME280;6302;42.624;23.334;2023-05-07T07:41:48;93570.69;;;17.10;96.01
12475;BME280;6302;42.624;23.334;2023-05-07T07:44:15;93576.06;;;17.23;94.66
12475;BME280;6302;42.624;23.334;2023-05-07T07:46:42;93578.09;;;17.31;90.82
12475;BME280;6302;42.624;23.334;2023-05-07T07:49:09;93580.25;;;17.36;90.66
12475;BME280;6302;42.624;23.334;2023-05-07T07:51:36;93577.25;;;17.47;91.23
12475;BME280;6302;42.624;23.334;2023-05-07T07:54:04;93581.66;;;17.53;90.39
12475;BME280;6302;42.624;23.334;2023-05-07T07:56:32;93572.00;;;17.43;90.46
12475;BME280;6302;42.624;23.334;2023-05-07T07:58:59;93590.75;;;17.43;89.32
12475;BME280;6302;42.624;23.334;2023-05-07T08:01:26;93580.25;;;17.36;88.05
12475;BME280;6302;42.624;23.334;2023-05-07T08:03:53;93576.47;;;17.34;91.83
12475;BME280;6302;42.624;23.334;2023-05-07T08:06:20;93582.94;;;17.49;95.63
12475;BME280;6302;42.624;23.334;2023-05-07T08:08:46;93583.81;;;17.71;95.96
12475;BME280;6302;42.624;23.334;2023-05-07T08:11:15;93583.28;;;17.89;93.77
12475;BME280;6302;42.624;23.334;2023-05-07T08:13:41;93577.69;;;17.96;93.35
12475;BME280;6302;42.624;23.334;2023-05-07T08:16:08;93579.44;;;17.90;94.05
12475;BME280;6302;42.624;23.334;2023-05-07T08:18:35;93571.25;;;17.93;91.67
12475;BME280;6302;42.624;23.334;2023-05-07T08:21:02;93574.56;;;18.10;92.73
12475;BME280;6302;42.624;23.334;2023-05-07T08:23:29;93574.13;;;18.24;91.92
12475;BME280;6302;42.624;23.334;2023-05-07T08:25:56;93575.53;;;18.16;92.83
12475;BME280;6302;42.624;23.334;2023-05-07T08:28:24;93572.28;;;18.21;94.68
12475;BME280;6302;42.624;23.334;2023-05-07T08:30:51;93565.72;;;18.22;94.45
12475;BME280;6302;42.624;23.334;2023-05-07T08:33:18;93573.16;;;18.18;92.59
12475;BME280;6302;42.624;23.334;2023-05-07T08:35:44;93567.03;;;18.17;93.97
12475;BME280;6302;42.624;23.334;2023-05-07T08:38:11;93571.66;;;18.17;94.88
12475;BME280;6302;42.624;23.334;2023-05-07T08:40:39;93568.03;;;18.11;96.03
12475;BME280;6302;42.624;23.334;2023-05-07T08:43:06;93564.91;;;18.00;96.44
12475;BME280;6302;42.624;23.334;2023-05-07T08:45:35;93558.38;;;18.01;97.10
12475;BME280;6302;42.624;23.334;2023-05-07T08:48:03;93556.06;;;18.25;98.88
12475;BME280;6302;42.624;23.334;2023-05-07T08:50:31;93567.72;;;18.43;98.09
12475;BME280;6302;42.624;23.334;2023-05-07T08:53:02;93562.75;;;18.54;94.39
12475;BME280;6302;42.624;23.334;2023-05-07T08:55:29;93558.66;;;18.62;93.53
12475;BME280;6302;42.624;23.334;2023-05-07T08:57:56;93560.63;;;18.49;91.99
12475;BME280;6302;42.624;23.334;2023-05-07T09:00:23;93556.47;;;18.48;92.21
12475;BME280;6302;42.624;23.334;2023-05-07T09:02:52;93550.53;;;18.53;88.23
12475;BME280;6302;42.624;23.334;2023-05-07T09:05:19;93556.31;;;18.52;88.13
12475;BME280;6302;42.624;23.334;2023-05-07T09:07:45;93552.22;;;18.81;86.53
12475;BME280;6302;42.624;23.334;2023-05-07T09:10:13;93553.41;;;19.02;79.71
12475;BME280;6302;42.624;23.334;2023-05-07T09:12:40;93547.22;;;19.14;76.26
12475;BME280;6302;42.624;23.334;2023-05-07T09:15:07;93539.38;;;18.98;74.22
12475;BME280;6302;42.624;23.334;2023-05-07T09:17:34;93543.03;;;18.92;76.45
12475;BME280;6302;42.624;23.334;2023-05-07T09:20:06;93544.09;;;18.94;77.28
12475;BME280;6302;42.624;23.334;2023-05-07T09:22:35;93540.94;;;19.08;79.66
12475;BME280;6302;42.624;23.334;2023-05-07T09:25:03;93544.69;;;19.41;82.06
12475;BME280;6302;42.624;23.334;2023-05-07T09:27:30;93529.03;;;19.80;81.85
12475;BME280;6302;42.624;23.334;2023-05-07T09:29:57;93525.34;;;20.13;74.29
12475;BME280;6302;42.624;23.334;2023-05-07T09:32:25;93527.22;;;20.44;74.56
12475;BME280;6302;42.624;23.334;2023-05-07T09:34:52;93517.03;;;20.66;74.68
12475;BME280;6302;42.624;23.334;2023-05-07T09:37:21;93520.16;;;20.64;74.60
12475;BME280;6302;42.624;23.334;2023-05-07T09:39:49;93521.38;;;20.63;74.76
12475;BME280;6302;42.624;23.334;2023-05-07T09:42:23;93518.81;;;20.60;73.69
12475;BME280;6302;42.624;23.334;2023-05-07T09:44:50;93511.94;;;20.59;73.69
12475;BME280;6302;42.624;23.334;2023-05-07T09:47:19;93519.72;;;20.75;74.09
12475;BME280;6302;42.624;23.334;2023-05-07T09:49:47;93506.84;;;20.88;72.78
12475;BME280;6302;42.624;23.334;2023-05-07T09:52:15;93505.75;;;20.95;69.33
12475;BME280;6302;42.624;23.334;2023-05-07T09:54:45;93505.00;;;20.94;69.89
12475;BME280;6302;42.624;23.334;2023-05-07T09:57:14;93507.16;;;20.81;69.16
12475;BME280;6302;42.624;23.334;2023-05-07T09:59:42;93502.94;;;20.98;70.58
12475;BME280;6302;42.624;23.334;2023-05-07T10:02:09;93507.09;;;21.17;73.18
12475;BME280;6302;42.624;23.334;2023-05-07T10:04:37;93499.81;;;21.42;68.07
12475;BME280;6302;42.624;23.334;2023-05-07T10:07:04;93498.00;;;21.48;66.43
12475;BME280;6302;42.624;23.334;2023-05-07T10:09:32;93498.00;;;21.48;63.68
12475;BME280;6302;42.624;23.334;2023-05-07T10:12:01;93490.91;;;21.17;64.51
12475;BME280;6302;42.624;23.334;2023-05-07T10:14:28;93495.44;;;20.93;65.82
12475;BME280;6302;42.624;23.334;2023-05-07T10:16:56;93493.19;;;21.01;65.50
12475;BME280;6302;42.624;23.334;2023-05-07T10:19:23;93500.19;;;21.16;66.18
12475;BME280;6302;42.624;23.334;2023-05-07T10:21:54;93490.06;;;20.93;67.74
12475;BME280;6302;42.624;23.334;2023-05-07T10:24:25;93492.09;;;21.25;63.88
12475;BME280;6302;42.624;23.334;2023-05-07T10:26:53;93477.47;;;21.08;63.50
12475;BME280;6302;42.624;23.334;2023-05-07T10:29:33;93478.91;;;21.27;63.33
12475;BME280;6302;42.624;23.334;2023-05-07T10:32:18;93478.16;;;21.60;64.61
12475;BME280;6302;42.624;23.334;2023-05-07T10:34:50;93478.66;;;21.82;59.42
12475;BME280;6302;42.624;23.334;2023-05-07T10:37:20;93470.44;;;21.76;55.17
12475;BME280;6302;42.624;23.334;2023-05-07T10:39:48;93472.66;;;21.78;58.12
12475;BME280;6302;42.624;23.334;2023-05-07T10:42:14;93468.91;;;21.84;56.92
12475;BME280;6302;42.624;23.334;2023-05-07T10:44:43;93468.22;;;21.75;58.55
12475;BME280;6302;42.624;23.334;2023-05-07T10:47:11;93466.84;;;21.70;59.72
12475;BME280;6302;42.624;23.334;2023-05-07T10:50:20;93459.25;;;21.92;57.24
12475;BME280;6302;42.624;23.334;2023-05-07T10:53:22;93464.78;;;21.98;55.00
12475;BME280;6302;42.624;23.334;2023-05-07T10:59:32;93460.75;;;22.17;54.90
12475;BME280;6302;42.624;23.334;2023-05-07T11:02:01;93457.31;;;22.17;53.91
12475;BME280;6302;42.624;23.334;2023-05-07T11:04:29;93449.03;;;22.20;54.77
12475;BME280;6302;42.624;23.334;2023-05-07T11:07:27;93459.19;;;22.25;52.19
12475;BME280;6302;42.624;23.334;2023-05-07T11:10:04;93461.34;;;22.21;53.74
12475;BME280;6302;42.624;23.334;2023-05-07T11:12:56;93451.81;;;22.11;53.79
12475;BME280;6302;42.624;23.334;2023-05-07T11:15:34;93455.31;;;22.02;54.78
12475;BME280;6302;42.624;23.334;2023-05-07T11:18:03;93455.53;;;21.90;52.90
12475;BME280;6302;42.624;23.334;2023-05-07T11:20:53;93449.25;;;21.84;55.29
12475;BME280;6302;42.624;23.334;2023-05-07T11:26:43;93437.72;;;22.31;53.82
12475;BME280;6302;42.624;23.334;2023-05-07T11:29:11;93438.28;;;22.49;54.12
12475;BME280;6302;42.624;23.334;2023-05-07T11:31:38;93443.47;;;22.77;54.32
12475;BME280;6302;42.624;23.334;2023-05-07T11:34:07;93436.69;;;22.96;50.68
12475;BME280;6302;42.624;23.334;2023-05-07T11:36:35;93430.91;;;22.88;51.06
12475;BME280;6302;42.624;23.334;2023-05-07T11:39:23;93433.88;;;22.76;51.63
12475;BME280;6302;42.624;23.334;2023-05-07T11:41:50;93431.72;;;22.65;49.31
12475;BME280;6302;42.624;23.334;2023-05-07T11:44:16;93436.97;;;22.45;51.03
12475;BME280;6302;42.624;23.334;2023-05-07T11:46:44;93431.03;;;22.55;53.20
12475;BME280;6302;42.624;23.334;2023-05-07T11:49:12;93439.84;;;22.80;54.02
12475;BME280;6302;42.624;23.334;2023-05-07T11:51:39;93430.16;;;22.88;50.21
12475;BME280;6302;42.624;23.334;2023-05-07T11:54:08;93432.66;;;22.91;52.73
12475;BME280;6302;42.624;23.334;2023-05-07T11:56:37;93426.41;;;23.00;50.33
12475;BME280;6302;42.624;23.334;2023-05-07T11:59:04;93427.72;;;22.90;50.52
12475;BME280;6302;42.624;23.334;2023-05-07T12:01:31;93431.28;;;22.96;51.31
12475;BME280;6302;42.624;23.334;2023-05-07T12:03:57;93430.66;;;23.21;52.10
12475;BME280;6302;42.624;23.334;2023-05-07T12:06:26;93425.25;;;23.36;53.40
12475;BME280;6302;42.624;23.334;2023-05-07T12:08:53;93415.16;;;23.51;47.21
12475;BME280;6302;42.624;23.334;2023-05-07T12:11:23;93422.09;;;23.37;43.99
12475;BME280;6302;42.624;23.334;2023-05-07T12:13:50;93406.41;;;23.41;46.32
12475;BME280;6302;42.624;23.334;2023-05-07T12:16:17;93409.19;;;23.47;46.61
12475;BME280;6302;42.624;23.334;2023-05-07T12:18:44;93410.78;;;23.73;47.80
12475;BME280;6302;42.624;23.334;2023-05-07T12:21:12;93408.03;;;23.88;44.77
12475;BME280;6302;42.624;23.334;2023-05-07T12:23:40;93398.44;;;23.87;43.91
12475;BME280;6302;42.624;23.334;2023-05-07T12:26:08;93391.16;;;23.78;44.48
12475;BME280;6302;42.624;23.334;2023-05-07T12:28:38;93399.69;;;23.91;46.28
12475;BME280;6302;42.624;23.334;2023-05-07T12:31:06;93391.25;;;24.04;47.13
12475;BME280;6302;42.624;23.334;2023-05-07T12:33:34;93387.53;;;24.02;47.64
12475;BME280;6302;42.624;23.334;2023-05-07T12:36:05;93380.88;;;24.03;47.63
12475;BME280;6302;42.624;23.334;2023-05-07T12:38:37;93377.16;;;24.20;45.42
12475;BME280;6302;42.624;23.334;2023-05-07T12:41:06;93369.44;;;24.33;44.99
12475;BME280;6302;42.624;23.334;2023-05-07T12:43:33;93374.47;;;24.46;46.71
12475;BME280;6302;42.624;23.334;2023-05-07T12:46:01;93360.94;;;24.46;43.65
12475;BME280;6302;42.624;23.334;2023-05-07T12:48:29;93369.84;;;24.52;42.13
12475;BME280;6302;42.624;23.334;2023-05-07T12:50:57;93376.31;;;24.60;42.25
12475;BME280;6302;42.624;23.334;2023-05-07T12:53:25;93362.97;;;24.51;41.11
12475;BME280;6302;42.624;23.334;2023-05-07T12:55:53;93363.16;;;24.22;41.25
12475;BME280;6302;42.624;23.334;2023-05-07T12:58:27;93368.56;;;23.81;40.97
12475;BME280;6302;42.624;23.334;2023-05-07T13:00:55;93361.13;;;23.76;42.46
12475;BME280;6302;42.624;23.334;2023-05-07T13:03:25;93360.72;;;23.83;41.17
12475;BME280;6302;42.624;23.334;2023-05-07T13:05:53;93351.94;;;23.68;41.30
12475;BME280;6302;42.624;23.334;2023-05-07T13:08:29;93343.53;;;23.86;44.41